Ciney, Belgium
Current Conditions -  °F | °C
As of 9:55 PM on Tuesday 21 Oct 2014 (Local Time) from EBFS Reporting Station
Scattered Clouds Scattered Clouds  
Wind Chill: 37°   Ceiling: Unl
Heat Index: 45°   Visibility: 6mi
Dew Point: 39°   Wind: 17mph
Humidity: 81%   Direction: 280°W
Pressure: 29.88"   Gusts: NA
Location:  50.29°N, 5.1°E
Report Text: EBFS 211955Z 28015KT 9999 FEW028 SCT055 07/04 Q1012 BLU BLU TEMPO GRN
Loading
Personal Weather Stations






























Interactive Weather Map
Tropical Storm Tracking
New forecast layout! Learn more

10-Day Weather Forecast

Advertisements
Track Severe Weather on mobile